Terminal Aerodrome Forecast
Issued by NWS Twin Cities, MN

Home | Current Version | Previous Version | Graphics & Text | Print | Product List | Glossary On
Versions: 1 2 3 4 5 6 7 8 9 10 11 12 13 14 15 16 17 18 19 20 21 22 23 24 25 26
000
FTUS43 KMPX 201543 AAA
TAFSTC
TAF AMD
KSTC 201543Z 2016/2112 14008KT P6SM -SHRA SCT020 OVC040
     FM201630 16009KT 5SM -SHRA BR VCTS SCT008 OVC012CB
      TEMPO 2017/2020 2SM SHRA OVC008
     FM202100 21009KT 3SM SHRA BKN008 OVC020
     FM210000 25011KT P6SM SCT012 BKN035
     FM210300 28009KT P6SM SKC=

USA.gov is the U.S. government's official web portal to all federal, state and local government web resources and services.